sensor_id;sensor_type;location;lat;lon;timestamp;pressure;altitude;pressure_sealevel;temperature;humidity
75891;BME280;64571;47.512;19.054;2022-12-29T00:00:51;101125.06;;;2.36;77.51
75891;BME280;64571;47.512;19.054;2022-12-29T00:03:53;101141.44;;;2.42;77.31
75891;BME280;64571;47.512;19.054;2022-12-29T00:06:56;101129.31;;;2.32;77.40
75891;BME280;64571;47.512;19.054;2022-12-29T00:09:59;101145.75;;;2.32;77.75
75891;BME280;64571;47.512;19.054;2022-12-29T00:13:01;101148.50;;;2.32;77.94
75891;BME280;64571;47.512;19.054;2022-12-29T00:16:23;101140.12;;;2.26;77.74
75891;BME280;64571;47.512;19.054;2022-12-29T00:19:26;101134.00;;;2.24;77.90
75891;BME280;64571;47.512;19.054;2022-12-29T00:22:47;101135.59;;;2.39;77.80
75891;BME280;64571;47.512;19.054;2022-12-29T00:26:12;101119.84;;;2.27;77.88
75891;BME280;64571;47.512;19.054;2022-12-29T00:29:34;101138.69;;;2.42;77.84
75891;BME280;64571;47.512;19.054;2022-12-29T00:32:55;101138.69;;;2.42;77.78
75891;BME280;64571;47.512;19.054;2022-12-29T00:36:43;101119.62;;;2.29;77.74
75891;BME280;64571;47.512;19.054;2022-12-29T00:39:46;101145.53;;;2.33;77.95
75891;BME280;64571;47.512;19.054;2022-12-29T00:43:08;101126.09;;;2.16;78.21
75891;BME280;64571;47.512;19.054;2022-12-29T00:46:29;101137.97;;;2.28;78.08
75891;BME280;64571;47.512;19.054;2022-12-29T00:49:32;101139.28;;;2.26;78.21
75891;BME280;64571;47.512;19.054;2022-12-29T00:52:35;101140.31;;;2.25;78.16
75891;BME280;64571;47.512;19.054;2022-12-29T00:55:38;101135.47;;;2.27;78.13
75891;BME280;64571;47.512;19.054;2022-12-29T00:58:42;101134.31;;;2.16;78.42
75891;BME280;64571;47.512;19.054;2022-12-29T01:01:46;101128.34;;;2.19;78.25
75891;BME280;64571;47.512;19.054;2022-12-29T01:04:49;101139.50;;;2.24;78.67
75891;BME280;64571;47.512;19.054;2022-12-29T01:07:51;101129.81;;;2.22;78.56
75891;BME280;64571;47.512;19.054;2022-12-29T01:11:08;101135.50;;;2.20;78.61
75891;BME280;64571;47.512;19.054;2022-12-29T01:14:10;101135.50;;;2.20;78.74
75891;BME280;64571;47.512;19.054;2022-12-29T01:17:13;101129.88;;;2.15;78.71
75891;BME280;64571;47.512;19.054;2022-12-29T01:20:15;101130.50;;;2.17;78.59
75891;BME280;64571;47.512;19.054;2022-12-29T01:23:19;101121.47;;;2.10;78.59
75891;BME280;64571;47.512;19.054;2022-12-29T01:26:21;101120.41;;;2.11;78.54
75891;BME280;64571;47.512;19.054;2022-12-29T01:29:26;101127.47;;;2.00;79.01
75891;BME280;64571;47.512;19.054;2022-12-29T01:32:29;101133.44;;;2.16;78.85
75891;BME280;64571;47.512;19.054;2022-12-29T01:35:33;101108.69;;;2.04;79.00
75891;BME280;64571;47.512;19.054;2022-12-29T01:38:36;101118.53;;;2.12;78.96
75891;BME280;64571;47.512;19.054;2022-12-29T01:41:39;101127.97;;;2.16;78.98
75891;BME280;64571;47.512;19.054;2022-12-29T01:44:56;101136.66;;;2.13;79.03
75891;BME280;64571;47.512;19.054;2022-12-29T01:48:04;101130.09;;;2.14;79.01
75891;BME280;64571;47.512;19.054;2022-12-29T01:51:08;101106.53;;;2.06;79.08
75891;BME280;64571;47.512;19.054;2022-12-29T01:54:18;101121.19;;;2.18;79.03
75891;BME280;64571;47.512;19.054;2022-12-29T01:57:28;101115.78;;;2.12;78.74
75891;BME280;64571;47.512;19.054;2022-12-29T02:00:32;101107.38;;;2.07;78.91
75891;BME280;64571;47.512;19.054;2022-12-29T02:03:36;101111.63;;;2.02;79.06
75891;BME280;64571;47.512;19.054;2022-12-29T02:06:48;101111.97;;;2.13;79.04
75891;BME280;64571;47.512;19.054;2022-12-29T02:09:54;101106.53;;;2.06;79.09
75891;BME280;64571;47.512;19.054;2022-12-29T02:12:57;101098.94;;;2.08;79.22
75891;BME280;64571;47.512;19.054;2022-12-29T02:34:07;101098.03;;;2.14;79.26
75891;BME280;64571;47.512;19.054;2022-12-29T02:37:21;101094.31;;;2.09;79.48
75891;BME280;64571;47.512;19.054;2022-12-29T02:40:58;101089.25;;;2.06;79.48
75891;BME280;64571;47.512;19.054;2022-12-29T02:44:17;101081.09;;;1.99;79.51
75891;BME280;64571;47.512;19.054;2022-12-29T02:50:37;101085.97;;;1.97;79.55
75891;BME280;64571;47.512;19.054;2022-12-29T02:53:41;101088.03;;;2.01;79.43
75891;BME280;64571;47.512;19.054;2022-12-29T02:57:03;101087.87;;;1.96;79.36
75891;BME280;64571;47.512;19.054;2022-12-29T03:00:10;101078.59;;;1.72;80.08
75891;BME280;64571;47.512;19.054;2022-12-29T03:06:30;101080.03;;;1.50;81.80
75891;BME280;64571;47.512;19.054;2022-12-29T03:16:28;101058.59;;;1.40;82.20
75891;BME280;64571;47.512;19.054;2022-12-29T03:19:43;101072.41;;;1.52;82.47
75891;BME280;64571;47.512;19.054;2022-12-29T03:22:51;101064.03;;;1.47;82.52
75891;BME280;64571;47.512;19.054;2022-12-29T03:26:01;101053.78;;;1.36;82.04
75891;BME280;64571;47.512;19.054;2022-12-29T03:29:07;101055.03;;;1.40;82.39
75891;BME280;64571;47.512;19.054;2022-12-29T03:32:13;101065.75;;;1.41;82.21
75891;BME280;64571;47.512;19.054;2022-12-29T03:35:19;101061.28;;;1.47;81.88
75891;BME280;64571;47.512;19.054;2022-12-29T03:38:27;101052.84;;;1.48;81.74
75891;BME280;64571;47.512;19.054;2022-12-29T03:41:34;101048.81;;;1.51;81.73
75891;BME280;64571;47.512;19.054;2022-12-29T03:44:40;101053.50;;;1.44;81.85
75891;BME280;64571;47.512;19.054;2022-12-29T03:47:43;101050.56;;;1.45;81.83
75891;BME280;64571;47.512;19.054;2022-12-29T03:50:46;101037.97;;;1.38;81.99
75891;BME280;64571;47.512;19.054;2022-12-29T03:53:49;101038.41;;;1.35;81.93
75891;BME280;64571;47.512;19.054;2022-12-29T03:56:51;101038.62;;;1.33;81.97
75891;BME280;64571;47.512;19.054;2022-12-29T03:59:56;101039.94;;;1.31;82.05
75891;BME280;64571;47.512;19.054;2022-12-29T04:02:58;101055.69;;;1.35;81.97
75891;BME280;64571;47.512;19.054;2022-12-29T04:06:01;101046.44;;;1.30;81.95
75891;BME280;64571;47.512;19.054;2022-12-29T04:09:05;101059.03;;;1.37;82.18
75891;BME280;64571;47.512;19.054;2022-12-29T04:12:09;101057.37;;;1.36;82.32
75891;BME280;64571;47.512;19.054;2022-12-29T04:15:11;101042.69;;;1.24;82.39
75891;BME280;64571;47.512;19.054;2022-12-29T04:18:16;101049.44;;;1.21;82.35
75891;BME280;64571;47.512;19.054;2022-12-29T04:21:19;101043.97;;;1.21;82.20
75891;BME280;64571;47.512;19.054;2022-12-29T04:24:22;101041.06;;;1.16;82.10
75891;BME280;64571;47.512;19.054;2022-12-29T04:27:25;101051.13;;;1.22;82.21
75891;BME280;64571;47.512;19.054;2022-12-29T04:30:28;101055.97;;;1.20;82.26
75891;BME280;64571;47.512;19.054;2022-12-29T04:33:31;101062.94;;;1.23;82.46
75891;BME280;64571;47.512;19.054;2022-12-29T04:36:33;101055.97;;;1.20;82.62
75891;BME280;64571;47.512;19.054;2022-12-29T04:39:36;101039.16;;;1.17;82.54
75891;BME280;64571;47.512;19.054;2022-12-29T04:42:40;101054.31;;;1.19;82.54
75891;BME280;64571;47.512;19.054;2022-12-29T04:45:44;101047.09;;;1.25;82.72
75891;BME280;64571;47.512;19.054;2022-12-29T04:48:47;101047.91;;;1.32;82.84
75891;BME280;64571;47.512;19.054;2022-12-29T04:51:52;101050.22;;;1.35;83.16
75891;BME280;64571;47.512;19.054;2022-12-29T04:54:54;101032.81;;;1.23;83.05
75891;BME280;64571;47.512;19.054;2022-12-29T04:57:57;101050.47;;;1.27;82.95
75891;BME280;64571;47.512;19.054;2022-12-29T05:01:00;101054.88;;;1.28;83.09
75891;BME280;64571;47.512;19.054;2022-12-29T05:04:03;101066.69;;;1.29;83.46
75891;BME280;64571;47.512;19.054;2022-12-29T05:07:07;101063.34;;;1.26;83.40
75891;BME280;64571;47.512;19.054;2022-12-29T05:10:10;101068.81;;;1.26;83.28
75891;BME280;64571;47.512;19.054;2022-12-29T05:13:13;101062.88;;;1.30;83.17
75891;BME280;64571;47.512;19.054;2022-12-29T05:16:16;101060.22;;;1.16;83.48
75891;BME280;64571;47.512;19.054;2022-12-29T05:19:20;101047.16;;;1.18;83.10
75891;BME280;64571;47.512;19.054;2022-12-29T05:22:22;101046.50;;;1.23;82.71
75891;BME280;64571;47.512;19.054;2022-12-29T05:25:25;101041.88;;;1.23;81.11
75891;BME280;64571;47.512;19.054;2022-12-29T05:28:28;101051.31;;;1.27;80.68
75891;BME280;64571;47.512;19.054;2022-12-29T05:31:31;101043.53;;;1.24;80.33
75891;BME280;64571;47.512;19.054;2022-12-29T05:34:35;101041.22;;;1.21;80.24
75891;BME280;64571;47.512;19.054;2022-12-29T05:37:40;101062.47;;;1.26;80.25
75891;BME280;64571;47.512;19.054;2022-12-29T05:40:43;101044.84;;;1.15;80.56
75891;BME280;64571;47.512;19.054;2022-12-29T05:43:46;101055.56;;;1.17;82.27
75891;BME280;64571;47.512;19.054;2022-12-29T05:46:49;101036.50;;;1.04;83.02
75891;BME280;64571;47.512;19.054;2022-12-29T05:49:52;101051.41;;;1.08;83.72
75891;BME280;64571;47.512;19.054;2022-12-29T05:52:54;101044.53;;;0.98;83.55
75891;BME280;64571;47.512;19.054;2022-12-29T05:55:57;101030.88;;;0.92;83.41
75891;BME280;64571;47.512;19.054;2022-12-29T05:59:00;101029.00;;;0.92;83.50
75891;BME280;64571;47.512;19.054;2022-12-29T06:02:03;101030.63;;;1.00;83.60
75891;BME280;64571;47.512;19.054;2022-12-29T06:05:06;101040.78;;;0.93;83.72
75891;BME280;64571;47.512;19.054;2022-12-29T06:08:09;101017.69;;;0.82;83.75
75891;BME280;64571;47.512;19.054;2022-12-29T06:11:12;101024.00;;;0.76;83.95
75891;BME280;64571;47.512;19.054;2022-12-29T06:14:15;101026.56;;;0.71;84.16
75891;BME280;64571;47.512;19.054;2022-12-29T06:17:18;101028.06;;;0.67;84.21
75891;BME280;64571;47.512;19.054;2022-12-29T06:20:21;101032.50;;;0.61;84.59
75891;BME280;64571;47.512;19.054;2022-12-29T06:23:23;101042.38;;;0.69;84.82
75891;BME280;64571;47.512;19.054;2022-12-29T06:26:26;101044.44;;;0.73;85.04
75891;BME280;64571;47.512;19.054;2022-12-29T06:29:28;101040.03;;;0.72;84.90
75891;BME280;64571;47.512;19.054;2022-12-29T06:32:31;101041.53;;;0.68;84.66
75891;BME280;64571;47.512;19.054;2022-12-29T06:35:34;101054.37;;;0.68;84.42
75891;BME280;64571;47.512;19.054;2022-12-29T06:38:37;101037.56;;;0.64;84.30
75891;BME280;64571;47.512;19.054;2022-12-29T06:41:40;101035.88;;;0.63;84.05
75891;BME280;64571;47.512;19.054;2022-12-29T06:44:43;101039.88;;;0.61;83.98
75891;BME280;64571;47.512;19.054;2022-12-29T06:47:46;101042.00;;;0.52;84.14
75891;BME280;64571;47.512;19.054;2022-12-29T06:50:48;101042.66;;;0.54;84.04
75891;BME280;64571;47.512;19.054;2022-12-29T06:53:51;101050.22;;;0.52;84.45
75891;BME280;64571;47.512;19.054;2022-12-29T06:56:53;101057.78;;;0.57;84.37
75891;BME280;64571;47.512;19.054;2022-12-29T06:59:55;101051.94;;;0.46;84.33
75891;BME280;64571;47.512;19.054;2022-12-29T07:02:58;101054.25;;;0.43;84.52
75891;BME280;64571;47.512;19.054;2022-12-29T07:06:01;101043.50;;;0.48;84.49
75891;BME280;64571;47.512;19.054;2022-12-29T07:09:03;101062.75;;;0.73;84.90
75891;BME280;64571;47.512;19.054;2022-12-29T07:12:06;101058.97;;;0.74;83.96
75891;BME280;64571;47.512;19.054;2022-12-29T07:15:09;101064.81;;;0.84;83.18
75891;BME280;64571;47.512;19.054;2022-12-29T07:18:11;101066.06;;;0.88;82.95
75891;BME280;64571;47.512;19.054;2022-12-29T07:21:14;101057.13;;;0.68;82.93
75891;BME280;64571;47.512;19.054;2022-12-29T07:24:17;101056.47;;;0.72;82.79
75891;BME280;64571;47.512;19.054;2022-12-29T07:27:19;101069.81;;;0.94;82.02
75891;BME280;64571;47.512;19.054;2022-12-29T07:30:22;101064.31;;;1.00;81.95
75891;BME280;64571;47.512;19.054;2022-12-29T07:33:24;101070.22;;;0.97;81.85
75891;BME280;64571;47.512;19.054;2022-12-29T07:36:27;101071.22;;;1.03;81.62
75891;BME280;64571;47.512;19.054;2022-12-29T07:39:35;101072.28;;;1.02;81.72
75891;BME280;64571;47.512;19.054;2022-12-29T07:42:38;101056.88;;;1.14;81.48
75891;BME280;64571;47.512;19.054;2022-12-29T07:45:42;101063.78;;;1.17;81.71
75891;BME280;64571;47.512;19.054;2022-12-29T07:48:45;101075.28;;;1.32;81.30
75891;BME280;64571;47.512;19.054;2022-12-29T07:51:47;101064.94;;;1.34;81.07
75891;BME280;64571;47.512;19.054;2022-12-29T07:54:50;101063.25;;;1.40;81.07
75891;BME280;64571;47.512;19.054;2022-12-29T07:57:53;101083.38;;;1.52;80.99
75891;BME280;64571;47.512;19.054;2022-12-29T08:00:56;101080.84;;;1.50;80.94
75891;BME280;64571;47.512;19.054;2022-12-29T08:03:59;101081.69;;;1.51;80.85
75891;BME280;64571;47.512;19.054;2022-12-29T08:07:02;101086.47;;;1.62;80.31
75891;BME280;64571;47.512;19.054;2022-12-29T08:10:05;101077.22;;;1.57;80.61
75891;BME280;64571;47.512;19.054;2022-12-29T08:13:07;101067.25;;;1.37;80.80
75891;BME280;64571;47.512;19.054;2022-12-29T08:16:10;101067.31;;;1.31;81.31
75891;BME280;64571;47.512;19.054;2022-12-29T08:19:13;101073.06;;;1.47;81.14
75891;BME280;64571;47.512;19.054;2022-12-29T08:22:16;101069.94;;;1.44;80.88
75891;BME280;64571;47.512;19.054;2022-12-29T08:25:18;101077.44;;;1.55;80.74
75891;BME280;64571;47.512;19.054;2022-12-29T08:28:22;101073.72;;;1.49;80.73
75891;BME280;64571;47.512;19.054;2022-12-29T08:31:24;101061.28;;;1.47;80.78
75891;BME280;64571;47.512;19.054;2022-12-29T08:34:27;101050.16;;;1.42;81.04
75891;BME280;64571;47.512;19.054;2022-12-29T08:37:32;101048.09;;;1.37;80.90
75891;BME280;64571;47.512;19.054;2022-12-29T08:40:34;101068.34;;;1.30;81.26
75891;BME280;64571;47.512;19.054;2022-12-29T08:43:37;101057.00;;;1.26;81.86
75891;BME280;64571;47.512;19.054;2022-12-29T08:46:39;101066.44;;;1.30;82.00
75891;BME280;64571;47.512;19.054;2022-12-29T08:49:42;101055.97;;;1.27;82.14
75891;BME280;64571;47.512;19.054;2022-12-29T08:52:44;101043.09;;;1.27;81.70
75891;BME280;64571;47.512;19.054;2022-12-29T08:55:55;101053.97;;;1.41;81.33
75891;BME280;64571;47.512;19.054;2022-12-29T08:59:06;101059.53;;;1.52;81.09
75891;BME280;64571;47.512;19.054;2022-12-29T09:02:12;101053.03;;;1.54;81.01
75891;BME280;64571;47.512;19.054;2022-12-29T09:05:21;101033.13;;;1.65;80.66
75891;BME280;64571;47.512;19.054;2022-12-29T09:08:24;101050.56;;;1.70;80.47
75891;BME280;64571;47.512;19.054;2022-12-29T09:11:27;101032.12;;;1.59;80.49
75891;BME280;64571;47.512;19.054;2022-12-29T09:14:30;101037.16;;;1.62;80.64
75891;BME280;64571;47.512;19.054;2022-12-29T09:17:33;101028.03;;;1.68;80.26
75891;BME280;64571;47.512;19.054;2022-12-29T09:20:48;101039.28;;;1.85;80.30
75891;BME280;64571;47.512;19.054;2022-12-29T09:23:50;101020.72;;;2.06;79.52
75891;BME280;64571;47.512;19.054;2022-12-29T09:26:53;101030.13;;;2.16;79.03
75891;BME280;64571;47.512;19.054;2022-12-29T09:29:56;101019.41;;;1.90;79.52
75891;BME280;64571;47.512;19.054;2022-12-29T09:32:58;101021.09;;;1.91;79.93
75891;BME280;64571;47.512;19.054;2022-12-29T09:36:02;101011.19;;;1.90;79.87
75891;BME280;64571;47.512;19.054;2022-12-29T09:39:05;101007.47;;;2.02;79.62
75891;BME280;64571;47.512;19.054;2022-12-29T09:42:18;101003.72;;;1.97;79.39
75891;BME280;64571;47.512;19.054;2022-12-29T09:45:30;101002.84;;;2.03;79.36
75891;BME280;64571;47.512;19.054;2022-12-29T09:48:41;100991.53;;;1.93;79.45
75891;BME280;64571;47.512;19.054;2022-12-29T09:51:49;101008.19;;;2.16;78.70
75891;BME280;64571;47.512;19.054;2022-12-29T09:55:05;101010.59;;;2.24;78.70
75891;BME280;64571;47.512;19.054;2022-12-29T09:58:25;101003.59;;;2.28;78.09
75891;BME280;64571;47.512;19.054;2022-12-29T10:01:52;100991.66;;;2.05;78.84
75891;BME280;64571;47.512;19.054;2022-12-29T10:04:57;100996.75;;;2.01;79.12
75891;BME280;64571;47.512;19.054;2022-12-29T10:14:54;100983.03;;;2.01;79.13
75891;BME280;64571;47.512;19.054;2022-12-29T10:24:10;100965.06;;;2.23;78.31
75891;BME280;64571;47.512;19.054;2022-12-29T10:27:14;100970.50;;;2.30;77.99
75891;BME280;64571;47.512;19.054;2022-12-29T10:30:19;100972.53;;;2.35;77.99
75891;BME280;64571;47.512;19.054;2022-12-29T10:33:25;100958.50;;;2.24;77.92
75891;BME280;64571;47.512;19.054;2022-12-29T10:36:42;100977.56;;;2.19;78.38
75891;BME280;64571;47.512;19.054;2022-12-29T10:39:49;100967.75;;;2.30;78.13
75891;BME280;64571;47.512;19.054;2022-12-29T10:42:55;100966.44;;;2.33;78.02
75891;BME280;64571;47.512;19.054;2022-12-29T10:46:01;100960.94;;;2.51;77.64
75891;BME280;64571;47.512;19.054;2022-12-29T10:49:14;100959.22;;;2.68;77.06
75891;BME280;64571;47.512;19.054;2022-12-29T10:52:23;100963.63;;;2.69;76.59
75891;BME280;64571;47.512;19.054;2022-12-29T10:55:32;100957.50;;;2.86;76.15
75891;BME280;64571;47.512;19.054;2022-12-29T10:58:37;100959.59;;;3.02;75.91
75891;BME280;64571;47.512;19.054;2022-12-29T11:08:30;100942.03;;;3.03;75.69
75891;BME280;64571;47.512;19.054;2022-12-29T11:11:36;100941.09;;;3.09;75.66
75891;BME280;64571;47.512;19.054;2022-12-29T11:14:41;100929.84;;;2.99;75.65
75891;BME280;64571;47.512;19.054;2022-12-29T11:17:48;100952.50;;;3.24;75.39
75891;BME280;64571;47.512;19.054;2022-12-29T11:20:57;100935.50;;;3.27;75.36
75891;BME280;64571;47.512;19.054;2022-12-29T11:24:04;100935.75;;;3.38;75.08
75891;BME280;64571;47.512;19.054;2022-12-29T11:27:26;100933.75;;;3.45;74.59
75891;BME280;64571;47.512;19.054;2022-12-29T11:30:30;100922.16;;;3.43;74.42
75891;BME280;64571;47.512;19.054;2022-12-29T11:33:35;100936.84;;;3.48;74.63
75891;BME280;64571;47.512;19.054;2022-12-29T11:36:38;100910.94;;;3.44;74.62
75891;BME280;64571;47.512;19.054;2022-12-29T11:39:58;100907.34;;;3.67;74.59
75891;BME280;64571;47.512;19.054;2022-12-29T11:43:02;100901.34;;;3.82;74.14
75891;BME280;64571;47.512;19.054;2022-12-29T11:46:12;100880.34;;;3.64;74.32
75891;BME280;64571;47.512;19.054;2022-12-29T11:49:24;100891.47;;;3.69;74.53
75891;BME280;64571;47.512;19.054;2022-12-29T11:52:32;100904.25;;;3.75;74.58
75891;BME280;64571;47.512;19.054;2022-12-29T11:55:37;100894.44;;;3.79;74.50
75891;BME280;64571;47.512;19.054;2022-12-29T11:58:40;100892.72;;;3.90;73.99
75891;BME280;64571;47.512;19.054;2022-12-29T12:01:43;100906.78;;;4.17;73.58
75891;BME280;64571;47.512;19.054;2022-12-29T12:04:49;100906.56;;;4.07;73.84
75891;BME280;64571;47.512;19.054;2022-12-29T12:08:07;100909.81;;;4.04;74.13
75891;BME280;64571;47.512;19.054;2022-12-29T12:11:18;100897.13;;;4.03;73.85
75891;BME280;64571;47.512;19.054;2022-12-29T12:14:30;100902.38;;;4.16;73.89
75891;BME280;64571;47.512;19.054;2022-12-29T12:17:43;100885.78;;;3.99;73.89
75891;BME280;64571;47.512;19.054;2022-12-29T12:20:57;100899.62;;;4.04;74.02
75891;BME280;64571;47.512;19.054;2022-12-29T12:24:11;100890.25;;;4.29;74.16
75891;BME280;64571;47.512;19.054;2022-12-29T12:27:26;100881.41;;;4.27;73.72
75891;BME280;64571;47.512;19.054;2022-12-29T12:30:40;100873.41;;;4.25;73.34
75891;BME280;64571;47.512;19.054;2022-12-29T12:33:46;100853.94;;;4.15;73.28
75891;BME280;64571;47.512;19.054;2022-12-29T12:43:42;100843.84;;;4.32;73.87
75891;BME280;64571;47.512;19.054;2022-12-29T12:50:26;100850.41;;;4.60;73.21
75891;BME280;64571;47.512;19.054;2022-12-29T12:57:02;100833.97;;;4.65;72.95
75891;BME280;64571;47.512;19.054;2022-12-29T13:00:12;100840.19;;;4.44;73.27
75891;BME280;64571;47.512;19.054;2022-12-29T13:03:38;100835.38;;;4.51;73.58
75891;BME280;64571;47.512;19.054;2022-12-29T13:20:37;100845.78;;;4.49;73.67
75891;BME280;64571;47.512;19.054;2022-12-29T13:23:46;100845.78;;;4.49;73.84
75891;BME280;64571;47.512;19.054;2022-12-29T13:30:52;100844.94;;;4.48;73.93
75891;BME280;64571;47.512;19.054;2022-12-29T13:37:22;100861.72;;;4.47;74.25
75891;BME280;64571;47.512;19.054;2022-12-29T13:40:32;100856.78;;;4.49;74.42
75891;BME280;64571;47.512;19.054;2022-12-29T13:43:39;100855.97;;;4.48;74.39
75891;BME280;64571;47.512;19.054;2022-12-29T13:46:44;100850.63;;;4.42;74.59
75891;BME280;64571;47.512;19.054;2022-12-29T13:49:50;100861.03;;;4.40;74.09
75891;BME280;64571;47.512;19.054;2022-12-29T13:53:18;100854.50;;;4.29;74.47
75891;BME280;64571;47.512;19.054;2022-12-29T13:56:34;100857.72;;;4.26;74.91
75891;BME280;64571;47.512;19.054;2022-12-29T14:06:05;100871.84;;;4.29;75.30
75891;BME280;64571;47.512;19.054;2022-12-29T14:12:42;100880.66;;;4.31;75.30
75891;BME280;64571;47.512;19.054;2022-12-29T14:15:51;100871.03;;;4.17;75.33
75891;BME280;64571;47.512;19.054;2022-12-29T14:18:57;100871.03;;;4.17;75.67
75891;BME280;64571;47.512;19.054;2022-12-29T14:22:06;100877.00;;;4.14;75.71
75891;BME280;64571;47.512;19.054;2022-12-29T14:28:50;100864.00;;;4.10;75.84
75891;BME280;64571;47.512;19.054;2022-12-29T14:31:53;100860.34;;;3.92;75.99
75891;BME280;64571;47.512;19.054;2022-12-29T14:34:57;100856.63;;;3.87;76.14
75891;BME280;64571;47.512;19.054;2022-12-29T14:38:26;100857.81;;;3.91;76.23
75891;BME280;64571;47.512;19.054;2022-12-29T14:41:33;100874.94;;;3.93;76.64
75891;BME280;64571;47.512;19.054;2022-12-29T14:45:23;100873.00;;;3.93;76.66
75891;BME280;64571;47.512;19.054;2022-12-29T14:48:52;100876.25;;;3.90;76.93
75891;BME280;64571;47.512;19.054;2022-12-29T14:52:13;100871.00;;;3.77;77.45
75891;BME280;64571;47.512;19.054;2022-12-29T14:58:29;100884.03;;;3.81;77.12
75891;BME280;64571;47.512;19.054;2022-12-29T15:01:43;100883.34;;;3.74;77.15
75891;BME280;64571;47.512;19.054;2022-12-29T15:04:48;100871.72;;;3.72;77.08
75891;BME280;64571;47.512;19.054;2022-12-29T15:07:52;100875.44;;;3.66;77.19
75891;BME280;64571;47.512;19.054;2022-12-29T15:11:00;100880.00;;;3.61;77.28
75891;BME280;64571;47.512;19.054;2022-12-29T15:14:33;100884.53;;;3.55;77.48
75891;BME280;64571;47.512;19.054;2022-12-29T15:17:36;100907.84;;;3.52;77.74
75891;BME280;64571;47.512;19.054;2022-12-29T15:20:41;100902.56;;;3.39;78.13
75891;BME280;64571;47.512;19.054;2022-12-29T15:23:45;100905.66;;;3.31;78.41
75891;BME280;64571;47.512;19.054;2022-12-29T15:26:51;100896.94;;;3.22;78.82
75891;BME280;64571;47.512;19.054;2022-12-29T15:29:59;100890.50;;;3.17;78.98
75891;BME280;64571;47.512;19.054;2022-12-29T15:33:17;100906.97;;;3.17;79.00
75891;BME280;64571;47.512;19.054;2022-12-29T15:39:29;100893.09;;;3.00;79.41
75891;BME280;64571;47.512;19.054;2022-12-29T15:46:15;100906.69;;;2.95;79.69
75891;BME280;64571;47.512;19.054;2022-12-29T15:49:19;100903.69;;;2.85;79.92
75891;BME280;64571;47.512;19.054;2022-12-29T15:52:23;100900.81;;;2.79;80.14
75891;BME280;64571;47.512;19.054;2022-12-29T15:55:36;100896.38;;;2.78;80.21
75891;BME280;64571;47.512;19.054;2022-12-29T15:58:43;100914.03;;;2.83;80.41
75891;BME280;64571;47.512;19.054;2022-12-29T16:01:47;100901.97;;;2.72;80.56
75891;BME280;64571;47.512;19.054;2022-12-29T16:04:50;100912.56;;;2.68;81.03
75891;BME280;64571;47.512;19.054;2022-12-29T16:11:38;100908.47;;;2.59;81.45
75891;BME280;64571;47.512;19.054;2022-12-29T16:14:44;100910.47;;;2.52;81.81
75891;BME280;64571;47.512;19.054;2022-12-29T16:17:50;100905.34;;;2.44;81.74
75891;BME280;64571;47.512;19.054;2022-12-29T16:20:56;100905.53;;;2.42;81.85
75891;BME280;64571;47.512;19.054;2022-12-29T16:24:07;100911.28;;;2.41;82.06
75891;BME280;64571;47.512;19.054;2022-12-29T16:27:27;100905.84;;;2.34;82.04
75891;BME280;64571;47.512;19.054;2022-12-29T16:30:33;100907.19;;;2.32;81.89
75891;BME280;64571;47.512;19.054;2022-12-29T16:33:45;100898.19;;;2.24;82.30
75891;BME280;64571;47.512;19.054;2022-12-29T16:37:30;100911.44;;;2.27;82.25
75891;BME280;64571;47.512;19.054;2022-12-29T16:40:33;100918.00;;;2.26;82.25
75891;BME280;64571;47.512;19.054;2022-12-29T16:43:36;100928.81;;;2.21;82.31
75891;BME280;64571;47.512;19.054;2022-12-29T16:50:12;100913.12;;;2.10;83.06
75891;BME280;64571;47.512;19.054;2022-12-29T16:53:23;100929.81;;;2.09;82.96
75891;BME280;64571;47.512;19.054;2022-12-29T16:56:30;100923.66;;;2.13;83.11
75891;BME280;64571;47.512;19.054;2022-12-29T16:59:36;100933.25;;;2.04;83.01
75891;BME280;64571;47.512;19.054;2022-12-29T17:02:41;100927.00;;;1.97;83.18
75891;BME280;64571;47.512;19.054;2022-12-29T17:05:47;100943.81;;;2.00;83.24
75891;BME280;64571;47.512;19.054;2022-12-29T17:08:58;100937.56;;;1.93;83.66
75891;BME280;64571;47.512;19.054;2022-12-29T17:12:01;100938.03;;;1.90;83.71
75891;BME280;64571;47.512;19.054;2022-12-29T17:15:18;100921.75;;;1.77;83.89
75891;BME280;64571;47.512;19.054;2022-12-29T17:18:23;100947.69;;;1.93;83.83
75891;BME280;64571;47.512;19.054;2022-12-29T17:21:25;100925.41;;;1.89;83.68
75891;BME280;64571;47.512;19.054;2022-12-29T17:24:28;100930.94;;;1.83;83.99
75891;BME280;64571;47.512;19.054;2022-12-29T17:27:41;100934.75;;;1.82;84.38
75891;BME280;64571;47.512;19.054;2022-12-29T17:30:45;100931.78;;;1.83;84.47
75891;BME280;64571;47.512;19.054;2022-12-29T17:33:48;100925.31;;;1.77;84.49
75891;BME280;64571;47.512;19.054;2022-12-29T17:36:51;100918.16;;;1.76;84.63
75891;BME280;64571;47.512;19.054;2022-12-29T17:39:54;100920.91;;;1.76;84.65
75891;BME280;64571;47.512;19.054;2022-12-29T17:42:57;100922.41;;;1.72;84.53
75891;BME280;64571;47.512;19.054;2022-12-29T17:46:01;100924.34;;;1.72;84.77
75891;BME280;64571;47.512;19.054;2022-12-29T17:49:04;100914.94;;;1.61;84.85
75891;BME280;64571;47.512;19.054;2022-12-29T17:52:14;100918.16;;;1.58;84.87
75891;BME280;64571;47.512;19.054;2022-12-29T17:55:20;100905.13;;;1.54;84.79
75891;BME280;64571;47.512;19.054;2022-12-29T17:58:25;100924.84;;;1.62;84.80
75891;BME280;64571;47.512;19.054;2022-12-29T18:01:27;100923.91;;;1.50;85.22
75891;BME280;64571;47.512;19.054;2022-12-29T18:04:37;100923.75;;;1.45;85.54
75891;BME280;64571;47.512;19.054;2022-12-29T18:07:39;100929.53;;;1.55;85.50
75891;BME280;64571;47.512;19.054;2022-12-29T18:10:42;100929.00;;;1.46;85.60
75891;BME280;64571;47.512;19.054;2022-12-29T18:13:45;100921.63;;;1.47;85.86